sensor_id;sensor_type;location;lat;lon;timestamp;P1;durP1;ratioP1;P2;durP2;ratioP2
16115;SDS011;8162;47.104;15.432;2023-05-07T00:01:39;75.53;;;38.73;;
16115;SDS011;8162;47.104;15.432;2023-05-07T00:04:40;82.43;;;33.07;;
16115;SDS011;8162;47.104;15.432;2023-05-07T00:07:41;82.70;;;37.13;;
16115;SDS011;8162;47.104;15.432;2023-05-07T00:10:42;64.20;;;26.17;;
16115;SDS011;8162;47.104;15.432;2023-05-07T00:13:43;53.53;;;23.37;;
16115;SDS011;8162;47.104;15.432;2023-05-07T00:16:44;68.63;;;30.30;;
16115;SDS011;8162;47.104;15.432;2023-05-07T00:19:45;49.80;;;28.93;;
16115;SDS011;8162;47.104;15.432;2023-05-07T00:22:46;72.50;;;29.27;;
16115;SDS011;8162;47.104;15.432;2023-05-07T00:25:47;53.27;;;27.97;;
16115;SDS011;8162;47.104;15.432;2023-05-07T00:28:50;59.53;;;26.07;;
16115;SDS011;8162;47.104;15.432;2023-05-07T00:31:51;52.17;;;26.97;;
16115;SDS011;8162;47.104;15.432;2023-05-07T00:34:53;60.33;;;28.47;;
16115;SDS011;8162;47.104;15.432;2023-05-07T00:37:55;63.60;;;28.37;;
16115;SDS011;8162;47.104;15.432;2023-05-07T00:40:56;56.27;;;27.20;;
16115;SDS011;8162;47.104;15.432;2023-05-07T00:43:56;53.27;;;27.57;;
16115;SDS011;8162;47.104;15.432;2023-05-07T00:46:57;58.23;;;29.30;;
16115;SDS011;8162;47.104;15.432;2023-05-07T00:49:58;52.97;;;26.60;;
16115;SDS011;8162;47.104;15.432;2023-05-07T00:52:59;40.30;;;25.07;;
16115;SDS011;8162;47.104;15.432;2023-05-07T00:56:00;48.80;;;26.70;;
16115;SDS011;8162;47.104;15.432;2023-05-07T00:59:02;35.63;;;20.67;;
16115;SDS011;8162;47.104;15.432;2023-05-07T01:02:03;43.57;;;23.77;;
16115;SDS011;8162;47.104;15.432;2023-05-07T01:05:04;29.90;;;19.93;;
16115;SDS011;8162;47.104;15.432;2023-05-07T01:08:07;34.47;;;22.37;;
16115;SDS011;8162;47.104;15.432;2023-05-07T01:11:08;23.80;;;19.40;;
16115;SDS011;8162;47.104;15.432;2023-05-07T01:14:10;25.23;;;18.03;;
16115;SDS011;8162;47.104;15.432;2023-05-07T01:17:11;41.00;;;21.80;;
16115;SDS011;8162;47.104;15.432;2023-05-07T01:20:12;39.60;;;22.80;;
16115;SDS011;8162;47.104;15.432;2023-05-07T01:23:13;43.07;;;23.50;;
16115;SDS011;8162;47.104;15.432;2023-05-07T01:26:15;47.80;;;23.17;;
16115;SDS011;8162;47.104;15.432;2023-05-07T01:29:19;45.40;;;22.37;;
16115;SDS011;8162;47.104;15.432;2023-05-07T01:32:21;42.77;;;22.60;;
16115;SDS011;8162;47.104;15.432;2023-05-07T01:35:28;37.77;;;20.47;;
16115;SDS011;8162;47.104;15.432;2023-05-07T01:38:29;39.50;;;21.93;;
16115;SDS011;8162;47.104;15.432;2023-05-07T01:41:32;43.87;;;24.43;;
16115;SDS011;8162;47.104;15.432;2023-05-07T01:44:33;33.03;;;20.50;;
16115;SDS011;8162;47.104;15.432;2023-05-07T01:47:34;49.17;;;23.60;;
16115;SDS011;8162;47.104;15.432;2023-05-07T01:50:36;52.60;;;25.93;;
16115;SDS011;8162;47.104;15.432;2023-05-07T01:53:38;34.17;;;17.43;;
16115;SDS011;8162;47.104;15.432;2023-05-07T01:56:41;46.03;;;23.23;;
16115;SDS011;8162;47.104;15.432;2023-05-07T01:59:42;42.27;;;21.37;;
16115;SDS011;8162;47.104;15.432;2023-05-07T02:02:43;33.03;;;20.63;;
16115;SDS011;8162;47.104;15.432;2023-05-07T02:05:44;52.27;;;25.17;;
16115;SDS011;8162;47.104;15.432;2023-05-07T02:08:45;47.20;;;24.73;;
16115;SDS011;8162;47.104;15.432;2023-05-07T02:11:46;50.03;;;22.23;;
16115;SDS011;8162;47.104;15.432;2023-05-07T02:14:47;38.27;;;20.57;;
16115;SDS011;8162;47.104;15.432;2023-05-07T02:18:04;43.83;;;20.60;;
16115;SDS011;8162;47.104;15.432;2023-05-07T02:21:06;34.10;;;17.67;;
16115;SDS011;8162;47.104;15.432;2023-05-07T02:24:07;45.13;;;22.70;;
16115;SDS011;8162;47.104;15.432;2023-05-07T02:27:08;40.30;;;21.00;;
16115;SDS011;8162;47.104;15.432;2023-05-07T02:30:09;38.47;;;19.47;;
16115;SDS011;8162;47.104;15.432;2023-05-07T02:33:10;18.10;;;12.70;;
16115;SDS011;8162;47.104;15.432;2023-05-07T02:36:13;38.73;;;18.77;;
16115;SDS011;8162;47.104;15.432;2023-05-07T02:39:14;41.00;;;20.73;;
16115;SDS011;8162;47.104;15.432;2023-05-07T02:42:16;34.20;;;17.90;;
16115;SDS011;8162;47.104;15.432;2023-05-07T02:45:17;35.10;;;17.30;;
16115;SDS011;8162;47.104;15.432;2023-05-07T02:48:18;29.30;;;19.53;;
16115;SDS011;8162;47.104;15.432;2023-05-07T02:51:20;44.27;;;20.40;;
16115;SDS011;8162;47.104;15.432;2023-05-07T02:54:21;36.67;;;18.33;;
16115;SDS011;8162;47.104;15.432;2023-05-07T02:57:22;35.33;;;17.43;;
16115;SDS011;8162;47.104;15.432;2023-05-07T03:00:23;15.10;;;11.63;;
16115;SDS011;8162;47.104;15.432;2023-05-07T03:03:24;31.37;;;18.17;;
16115;SDS011;8162;47.104;15.432;2023-05-07T03:06:25;25.70;;;15.40;;
16115;SDS011;8162;47.104;15.432;2023-05-07T03:09:27;36.27;;;19.87;;
16115;SDS011;8162;47.104;15.432;2023-05-07T03:12:28;21.40;;;13.30;;
16115;SDS011;8162;47.104;15.432;2023-05-07T03:15:29;35.33;;;15.73;;
16115;SDS011;8162;47.104;15.432;2023-05-07T03:18:30;36.00;;;19.57;;
16115;SDS011;8162;47.104;15.432;2023-05-07T03:21:31;19.90;;;12.03;;
16115;SDS011;8162;47.104;15.432;2023-05-07T03:24:33;38.73;;;20.93;;
16115;SDS011;8162;47.104;15.432;2023-05-07T03:27:34;24.07;;;13.77;;
16115;SDS011;8162;47.104;15.432;2023-05-07T03:30:35;35.43;;;18.30;;
16115;SDS011;8162;47.104;15.432;2023-05-07T03:33:38;36.53;;;19.97;;
16115;SDS011;8162;47.104;15.432;2023-05-07T03:36:39;35.40;;;17.23;;
16115;SDS011;8162;47.104;15.432;2023-05-07T03:39:40;50.53;;;22.40;;
16115;SDS011;8162;47.104;15.432;2023-05-07T03:42:41;39.40;;;20.00;;
16115;SDS011;8162;47.104;15.432;2023-05-07T03:45:43;42.07;;;21.27;;
16115;SDS011;8162;47.104;15.432;2023-05-07T03:48:43;32.70;;;16.73;;
16115;SDS011;8162;47.104;15.432;2023-05-07T03:51:44;30.07;;;16.37;;
16115;SDS011;8162;47.104;15.432;2023-05-07T03:54:46;19.43;;;14.10;;
16115;SDS011;8162;47.104;15.432;2023-05-07T03:57:47;30.37;;;13.93;;
16115;SDS011;8162;47.104;15.432;2023-05-07T04:00:48;27.13;;;14.43;;
16115;SDS011;8162;47.104;15.432;2023-05-07T04:03:49;46.00;;;21.77;;
16115;SDS011;8162;47.104;15.432;2023-05-07T04:06:50;27.97;;;15.67;;
16115;SDS011;8162;47.104;15.432;2023-05-07T04:09:51;44.23;;;20.43;;
16115;SDS011;8162;47.104;15.432;2023-05-07T04:12:52;47.47;;;21.83;;
16115;SDS011;8162;47.104;15.432;2023-05-07T04:15:54;36.37;;;18.40;;
16115;SDS011;8162;47.104;15.432;2023-05-07T04:18:55;34.57;;;17.17;;
16115;SDS011;8162;47.104;15.432;2023-05-07T04:21:56;46.47;;;22.33;;
16115;SDS011;8162;47.104;15.432;2023-05-07T04:24:57;42.73;;;19.97;;
16115;SDS011;8162;47.104;15.432;2023-05-07T04:27:58;42.90;;;22.50;;
16115;SDS011;8162;47.104;15.432;2023-05-07T04:30:59;37.60;;;18.33;;
16115;SDS011;8162;47.104;15.432;2023-05-07T04:34:00;38.43;;;19.10;;
16115;SDS011;8162;47.104;15.432;2023-05-07T04:37:01;34.17;;;17.57;;
16115;SDS011;8162;47.104;15.432;2023-05-07T04:40:02;38.67;;;19.03;;
16115;SDS011;8162;47.104;15.432;2023-05-07T04:43:03;27.10;;;15.07;;
16115;SDS011;8162;47.104;15.432;2023-05-07T04:46:04;38.50;;;17.60;;
16115;SDS011;8162;47.104;15.432;2023-05-07T04:49:05;26.03;;;15.30;;
16115;SDS011;8162;47.104;15.432;2023-05-07T04:52:07;43.60;;;20.80;;
16115;SDS011;8162;47.104;15.432;2023-05-07T04:55:08;35.37;;;16.73;;
16115;SDS011;8162;47.104;15.432;2023-05-07T04:58:09;32.73;;;16.10;;
16115;SDS011;8162;47.104;15.432;2023-05-07T05:01:10;50.23;;;21.90;;
16115;SDS011;8162;47.104;15.432;2023-05-07T05:04:11;47.50;;;22.40;;
16115;SDS011;8162;47.104;15.432;2023-05-07T05:07:13;41.67;;;20.30;;
16115;SDS011;8162;47.104;15.432;2023-05-07T05:10:14;51.73;;;22.30;;
16115;SDS011;8162;47.104;15.432;2023-05-07T05:13:16;42.80;;;22.10;;
16115;SDS011;8162;47.104;15.432;2023-05-07T05:16:17;48.33;;;21.07;;
16115;SDS011;8162;47.104;15.432;2023-05-07T05:19:18;47.10;;;21.30;;
16115;SDS011;8162;47.104;15.432;2023-05-07T05:22:19;30.43;;;14.70;;
16115;SDS011;8162;47.104;15.432;2023-05-07T05:25:20;43.80;;;20.80;;
16115;SDS011;8162;47.104;15.432;2023-05-07T05:28:21;49.87;;;22.07;;
16115;SDS011;8162;47.104;15.432;2023-05-07T05:31:22;28.93;;;14.70;;
16115;SDS011;8162;47.104;15.432;2023-05-07T05:34:23;35.33;;;18.73;;
16115;SDS011;8162;47.104;15.432;2023-05-07T05:37:24;28.40;;;15.77;;
16115;SDS011;8162;47.104;15.432;2023-05-07T05:40:25;27.00;;;13.67;;
16115;SDS011;8162;47.104;15.432;2023-05-07T05:43:26;36.43;;;18.63;;
16115;SDS011;8162;47.104;15.432;2023-05-07T05:46:27;37.13;;;19.20;;
16115;SDS011;8162;47.104;15.432;2023-05-07T05:49:28;39.23;;;17.33;;
16115;SDS011;8162;47.104;15.432;2023-05-07T05:52:29;37.77;;;18.17;;
16115;SDS011;8162;47.104;15.432;2023-05-07T05:55:31;29.20;;;15.27;;
16115;SDS011;8162;47.104;15.432;2023-05-07T05:58:32;33.67;;;16.20;;
16115;SDS011;8162;47.104;15.432;2023-05-07T06:01:33;34.80;;;17.13;;
16115;SDS011;8162;47.104;15.432;2023-05-07T06:04:34;28.30;;;14.13;;
16115;SDS011;8162;47.104;15.432;2023-05-07T06:07:35;31.20;;;16.97;;
16115;SDS011;8162;47.104;15.432;2023-05-07T06:10:37;29.80;;;14.77;;
16115;SDS011;8162;47.104;15.432;2023-05-07T06:13:38;25.23;;;15.23;;
16115;SDS011;8162;47.104;15.432;2023-05-07T06:16:39;17.33;;;12.43;;
16115;SDS011;8162;47.104;15.432;2023-05-07T06:19:40;23.87;;;14.23;;
16115;SDS011;8162;47.104;15.432;2023-05-07T06:22:41;21.80;;;13.60;;
16115;SDS011;8162;47.104;15.432;2023-05-07T06:25:45;17.00;;;11.13;;
16115;SDS011;8162;47.104;15.432;2023-05-07T06:28:46;21.27;;;12.57;;
16115;SDS011;8162;47.104;15.432;2023-05-07T06:31:47;21.00;;;12.30;;
16115;SDS011;8162;47.104;15.432;2023-05-07T06:34:48;16.93;;;10.13;;
16115;SDS011;8162;47.104;15.432;2023-05-07T06:37:49;26.53;;;15.43;;
16115;SDS011;8162;47.104;15.432;2023-05-07T06:40:50;25.87;;;16.57;;
16115;SDS011;8162;47.104;15.432;2023-05-07T06:43:52;22.80;;;12.90;;
16115;SDS011;8162;47.104;15.432;2023-05-07T06:46:53;27.00;;;16.87;;
16115;SDS011;8162;47.104;15.432;2023-05-07T06:49:54;29.40;;;18.23;;
16115;SDS011;8162;47.104;15.432;2023-05-07T06:52:55;36.33;;;17.43;;
16115;SDS011;8162;47.104;15.432;2023-05-07T06:55:56;22.50;;;14.67;;
16115;SDS011;8162;47.104;15.432;2023-05-07T06:58:57;21.70;;;15.70;;
16115;SDS011;8162;47.104;15.432;2023-05-07T07:01:58;22.37;;;14.00;;
16115;SDS011;8162;47.104;15.432;2023-05-07T07:04:59;17.80;;;12.80;;
16115;SDS011;8162;47.104;15.432;2023-05-07T07:08:00;30.37;;;16.13;;
16115;SDS011;8162;47.104;15.432;2023-05-07T07:11:01;26.43;;;14.70;;
16115;SDS011;8162;47.104;15.432;2023-05-07T07:14:02;22.10;;;13.33;;
16115;SDS011;8162;47.104;15.432;2023-05-07T07:17:05;29.20;;;14.30;;
16115;SDS011;8162;47.104;15.432;2023-05-07T07:20:06;17.17;;;12.37;;
16115;SDS011;8162;47.104;15.432;2023-05-07T07:23:07;22.00;;;13.30;;
16115;SDS011;8162;47.104;15.432;2023-05-07T07:26:08;13.70;;;12.07;;
16115;SDS011;8162;47.104;15.432;2023-05-07T07:29:09;21.10;;;12.03;;
16115;SDS011;8162;47.104;15.432;2023-05-07T07:32:10;18.20;;;11.10;;
16115;SDS011;8162;47.104;15.432;2023-05-07T07:35:11;18.60;;;11.93;;
16115;SDS011;8162;47.104;15.432;2023-05-07T07:38:12;21.57;;;12.77;;
16115;SDS011;8162;47.104;15.432;2023-05-07T07:41:13;11.57;;;9.90;;
16115;SDS011;8162;47.104;15.432;2023-05-07T07:44:14;27.40;;;15.37;;
16115;SDS011;8162;47.104;15.432;2023-05-07T07:47:15;15.20;;;12.43;;
16115;SDS011;8162;47.104;15.432;2023-05-07T07:50:16;20.60;;;13.20;;
16115;SDS011;8162;47.104;15.432;2023-05-07T07:53:17;32.17;;;16.13;;
16115;SDS011;8162;47.104;15.432;2023-05-07T07:56:19;23.00;;;13.13;;
16115;SDS011;8162;47.104;15.432;2023-05-07T07:59:20;21.83;;;13.83;;
16115;SDS011;8162;47.104;15.432;2023-05-07T08:02:21;29.53;;;15.70;;
16115;SDS011;8162;47.104;15.432;2023-05-07T08:05:22;28.30;;;14.23;;
16115;SDS011;8162;47.104;15.432;2023-05-07T08:08:24;24.47;;;13.90;;
16115;SDS011;8162;47.104;15.432;2023-05-07T08:11:25;26.57;;;13.97;;
16115;SDS011;8162;47.104;15.432;2023-05-07T08:14:26;22.87;;;15.90;;
16115;SDS011;8162;47.104;15.432;2023-05-07T08:17:28;19.93;;;13.50;;
16115;SDS011;8162;47.104;15.432;2023-05-07T08:20:29;24.57;;;15.67;;
16115;SDS011;8162;47.104;15.432;2023-05-07T08:23:30;16.77;;;15.07;;
16115;SDS011;8162;47.104;15.432;2023-05-07T08:26:31;16.60;;;12.37;;
16115;SDS011;8162;47.104;15.432;2023-05-07T08:29:32;31.30;;;15.67;;
16115;SDS011;8162;47.104;15.432;2023-05-07T08:32:33;13.63;;;12.03;;
16115;SDS011;8162;47.104;15.432;2023-05-07T08:35:34;9.80;;;8.53;;
16115;SDS011;8162;47.104;15.432;2023-05-07T08:38:36;11.43;;;9.87;;
16115;SDS011;8162;47.104;15.432;2023-05-07T08:41:37;11.47;;;10.27;;
16115;SDS011;8162;47.104;15.432;2023-05-07T08:44:38;17.50;;;12.03;;
16115;SDS011;8162;47.104;15.432;2023-05-07T08:47:43;16.93;;;11.63;;
16115;SDS011;8162;47.104;15.432;2023-05-07T08:50:45;10.77;;;9.67;;
16115;SDS011;8162;47.104;15.432;2023-05-07T08:53:47;10.27;;;9.27;;
16115;SDS011;8162;47.104;15.432;2023-05-07T08:56:48;8.63;;;7.83;;
16115;SDS011;8162;47.104;15.432;2023-05-07T08:59:49;9.00;;;8.20;;
16115;SDS011;8162;47.104;15.432;2023-05-07T09:02:51;8.70;;;7.80;;
16115;SDS011;8162;47.104;15.432;2023-05-07T09:05:53;9.80;;;8.30;;
16115;SDS011;8162;47.104;15.432;2023-05-07T09:08:54;7.80;;;7.13;;
16115;SDS011;8162;47.104;15.432;2023-05-07T09:11:58;8.27;;;7.47;;
16115;SDS011;8162;47.104;15.432;2023-05-07T09:15:00;7.63;;;6.83;;
16115;SDS011;8162;47.104;15.432;2023-05-07T09:18:02;6.80;;;6.10;;
16115;SDS011;8162;47.104;15.432;2023-05-07T09:21:03;8.20;;;7.50;;
16115;SDS011;8162;47.104;15.432;2023-05-07T09:24:04;8.00;;;7.27;;
16115;SDS011;8162;47.104;15.432;2023-05-07T09:27:06;6.90;;;6.33;;
16115;SDS011;8162;47.104;15.432;2023-05-07T09:30:08;6.90;;;6.40;;
16115;SDS011;8162;47.104;15.432;2023-05-07T09:33:10;7.03;;;6.43;;
16115;SDS011;8162;47.104;15.432;2023-05-07T09:36:11;6.23;;;5.73;;
16115;SDS011;8162;47.104;15.432;2023-05-07T09:39:12;6.60;;;5.90;;
16115;SDS011;8162;47.104;15.432;2023-05-07T09:42:13;6.83;;;6.23;;
16115;SDS011;8162;47.104;15.432;2023-05-07T09:45:29;5.80;;;5.30;;
16115;SDS011;8162;47.104;15.432;2023-05-07T09:48:30;6.20;;;5.80;;
16115;SDS011;8162;47.104;15.432;2023-05-07T09:51:43;6.13;;;5.57;;
16115;SDS011;8162;47.104;15.432;2023-05-07T09:54:46;5.03;;;4.53;;
16115;SDS011;8162;47.104;15.432;2023-05-07T09:57:51;5.97;;;5.43;;
16115;SDS011;8162;47.104;15.432;2023-05-07T10:00:53;6.03;;;5.43;;
16115;SDS011;8162;47.104;15.432;2023-05-07T10:03:54;5.10;;;4.70;;
16115;SDS011;8162;47.104;15.432;2023-05-07T10:06:55;5.20;;;4.70;;
16115;SDS011;8162;47.104;15.432;2023-05-07T10:09:56;5.60;;;5.10;;
16115;SDS011;8162;47.104;15.432;2023-05-07T10:12:58;6.57;;;5.13;;
16115;SDS011;8162;47.104;15.432;2023-05-07T10:15:59;5.27;;;4.77;;
16115;SDS011;8162;47.104;15.432;2023-05-07T10:19:02;5.30;;;4.80;;
16115;SDS011;8162;47.104;15.432;2023-05-07T10:22:04;4.97;;;4.57;;
16115;SDS011;8162;47.104;15.432;2023-05-07T10:25:16;5.80;;;4.70;;
16115;SDS011;8162;47.104;15.432;2023-05-07T10:28:18;6.03;;;4.57;;
16115;SDS011;8162;47.104;15.432;2023-05-07T10:34:40;7.03;;;4.50;;
16115;SDS011;8162;47.104;15.432;2023-05-07T10:37:42;3.33;;;3.03;;
16115;SDS011;8162;47.104;15.432;2023-05-07T10:40:44;4.17;;;3.87;;
16115;SDS011;8162;47.104;15.432;2023-05-07T10:43:45;4.30;;;3.90;;
16115;SDS011;8162;47.104;15.432;2023-05-07T10:47:02;3.80;;;3.47;;
16115;SDS011;8162;47.104;15.432;2023-05-07T11:02:21;3.60;;;3.30;;
16115;SDS011;8162;47.104;15.432;2023-05-07T11:05:22;3.80;;;3.50;;
16115;SDS011;8162;47.104;15.432;2023-05-07T11:08:23;3.47;;;3.17;;
16115;SDS011;8162;47.104;15.432;2023-05-07T11:14:44;4.97;;;4.00;;
16115;SDS011;8162;47.104;15.432;2023-05-07T11:17:52;4.03;;;3.80;;
16115;SDS011;8162;47.104;15.432;2023-05-07T11:20:57;3.73;;;3.43;;
16115;SDS011;8162;47.104;15.432;2023-05-07T11:23:59;3.10;;;2.83;;
16115;SDS011;8162;47.104;15.432;2023-05-07T11:27:00;2.77;;;2.57;;
16115;SDS011;8162;47.104;15.432;2023-05-07T11:30:02;2.97;;;2.77;;
16115;SDS011;8162;47.104;15.432;2023-05-07T11:33:03;4.40;;;3.60;;
16115;SDS011;8162;47.104;15.432;2023-05-07T11:36:05;3.43;;;3.03;;
16115;SDS011;8162;47.104;15.432;2023-05-07T11:39:07;3.73;;;2.90;;
16115;SDS011;8162;47.104;15.432;2023-05-07T11:42:28;3.50;;;3.20;;
16115;SDS011;8162;47.104;15.432;2023-05-07T11:45:29;2.90;;;2.60;;
16115;SDS011;8162;47.104;15.432;2023-05-07T11:48:30;3.00;;;2.60;;
16115;SDS011;8162;47.104;15.432;2023-05-07T11:51:31;3.23;;;2.93;;
16115;SDS011;8162;47.104;15.432;2023-05-07T11:54:38;3.30;;;2.97;;
16115;SDS011;8162;47.104;15.432;2023-05-07T11:57:39;3.93;;;2.70;;
16115;SDS011;8162;47.104;15.432;2023-05-07T12:00:47;4.33;;;2.47;;
16115;SDS011;8162;47.104;15.432;2023-05-07T12:03:49;2.43;;;2.23;;
16115;SDS011;8162;47.104;15.432;2023-05-07T12:06:53;2.70;;;1.87;;
16115;SDS011;8162;47.104;15.432;2023-05-07T12:09:55;3.80;;;1.77;;
16115;SDS011;8162;47.104;15.432;2023-05-07T12:12:56;2.40;;;1.67;;
16115;SDS011;8162;47.104;15.432;2023-05-07T12:15:57;2.07;;;1.87;;
16115;SDS011;8162;47.104;15.432;2023-05-07T12:18:58;2.10;;;1.83;;
16115;SDS011;8162;47.104;15.432;2023-05-07T12:21:59;3.33;;;2.20;;
16115;SDS011;8162;47.104;15.432;2023-05-07T12:25:00;2.73;;;2.20;;
16115;SDS011;8162;47.104;15.432;2023-05-07T12:28:03;2.40;;;2.17;;
16115;SDS011;8162;47.104;15.432;2023-05-07T12:31:05;3.50;;;2.30;;
16115;SDS011;8162;47.104;15.432;2023-05-07T12:34:06;2.33;;;2.13;;
16115;SDS011;8162;47.104;15.432;2023-05-07T12:37:07;4.03;;;1.80;;
16115;SDS011;8162;47.104;15.432;2023-05-07T12:40:09;2.43;;;2.10;;
16115;SDS011;8162;47.104;15.432;2023-05-07T12:46:20;4.90;;;2.87;;
16115;SDS011;8162;47.104;15.432;2023-05-07T12:49:23;6.07;;;2.40;;
16115;SDS011;8162;47.104;15.432;2023-05-07T12:52:25;2.27;;;2.07;;
16115;SDS011;8162;47.104;15.432;2023-05-07T12:55:26;7.83;;;3.23;;
16115;SDS011;8162;47.104;15.432;2023-05-07T12:58:28;4.20;;;3.57;;
16115;SDS011;8162;47.104;15.432;2023-05-07T13:01:29;3.90;;;3.50;;
16115;SDS011;8162;47.104;15.432;2023-05-07T13:04:31;5.53;;;4.50;;
16115;SDS011;8162;47.104;15.432;2023-05-07T13:07:32;7.00;;;4.60;;
16115;SDS011;8162;47.104;15.432;2023-05-07T13:10:33;6.00;;;5.27;;
16115;SDS011;8162;47.104;15.432;2023-05-07T13:13:35;6.00;;;5.40;;
16115;SDS011;8162;47.104;15.432;2023-05-07T13:16:36;8.57;;;5.90;;
16115;SDS011;8162;47.104;15.432;2023-05-07T13:19:37;6.17;;;5.67;;
16115;SDS011;8162;47.104;15.432;2023-05-07T13:22:39;7.07;;;6.07;;
16115;SDS011;8162;47.104;15.432;2023-05-07T13:25:40;8.33;;;7.63;;
16115;SDS011;8162;47.104;15.432;2023-05-07T13:28:41;7.87;;;7.17;;
16115;SDS011;8162;47.104;15.432;2023-05-07T13:31:43;9.17;;;8.27;;
16115;SDS011;8162;47.104;15.432;2023-05-07T13:34:44;11.40;;;10.20;;
16115;SDS011;8162;47.104;15.432;2023-05-07T13:37:45;15.30;;;12.67;;
16115;SDS011;8162;47.104;15.432;2023-05-07T13:40:48;14.50;;;13.07;;
16115;SDS011;8162;47.104;15.432;2023-05-07T13:43:49;15.20;;;13.63;;
16115;SDS011;8162;47.104;15.432;2023-05-07T13:46:50;15.73;;;14.07;;
16115;SDS011;8162;47.104;15.432;2023-05-07T13:49:51;16.83;;;15.03;;
16115;SDS011;8162;47.104;15.432;2023-05-07T13:52:52;19.33;;;17.30;;
16115;SDS011;8162;47.104;15.432;2023-05-07T13:55:53;19.10;;;15.53;;
16115;SDS011;8162;47.104;15.432;2023-05-07T13:58:54;17.77;;;16.03;;
16115;SDS011;8162;47.104;15.432;2023-05-07T14:01:55;19.40;;;17.27;;
16115;SDS011;8162;47.104;15.432;2023-05-07T14:04:56;23.83;;;18.47;;
16115;SDS011;8162;47.104;15.432;2023-05-07T14:07:57;20.73;;;17.93;;
16115;SDS011;8162;47.104;15.432;2023-05-07T14:10:58;20.97;;;18.73;;
16115;SDS011;8162;47.104;15.432;2023-05-07T14:14:00;24.17;;;18.17;;
16115;SDS011;8162;47.104;15.432;2023-05-07T14:17:01;22.53;;;17.53;;
16115;SDS011;8162;47.104;15.432;2023-05-07T14:20:02;20.13;;;17.07;;
16115;SDS011;8162;47.104;15.432;2023-05-07T14:23:03;21.67;;;17.67;;
16115;SDS011;8162;47.104;15.432;2023-05-07T14:26:04;20.57;;;18.43;;
16115;SDS011;8162;47.104;15.432;2023-05-07T14:29:05;21.13;;;18.33;;
16115;SDS011;8162;47.104;15.432;2023-05-07T14:32:06;17.83;;;15.90;;
16115;SDS011;8162;47.104;15.432;2023-05-07T14:35:07;19.10;;;16.77;;
16115;SDS011;8162;47.104;15.432;2023-05-07T14:38:08;16.77;;;14.80;;
16115;SDS011;8162;47.104;15.432;2023-05-07T14:41:09;15.60;;;14.00;;
16115;SDS011;8162;47.104;15.432;2023-05-07T14:44:10;13.90;;;12.57;;
16115;SDS011;8162;47.104;15.432;2023-05-07T14:47:12;13.43;;;11.83;;
16115;SDS011;8162;47.104;15.432;2023-05-07T14:50:13;14.60;;;12.77;;
16115;SDS011;8162;47.104;15.432;2023-05-07T14:53:15;12.60;;;11.30;;
16115;SDS011;8162;47.104;15.432;2023-05-07T14:56:16;13.13;;;11.80;;
16115;SDS011;8162;47.104;15.432;2023-05-07T14:59:18;13.70;;;12.40;;
16115;SDS011;8162;47.104;15.432;2023-05-07T15:02:20;14.53;;;12.70;;
16115;SDS011;8162;47.104;15.432;2023-05-07T15:05:22;12.57;;;11.33;;
16115;SDS011;8162;47.104;15.432;2023-05-07T15:08:23;13.23;;;11.93;;
16115;SDS011;8162;47.104;15.432;2023-05-07T15:11:24;14.63;;;12.47;;
16115;SDS011;8162;47.104;15.432;2023-05-07T15:14:25;13.60;;;11.53;;
16115;SDS011;8162;47.104;15.432;2023-05-07T15:17:26;12.40;;;11.20;;
16115;SDS011;8162;47.104;15.432;2023-05-07T15:20:27;12.43;;;11.23;;
16115;SDS011;8162;47.104;15.432;2023-05-07T15:23:28;14.73;;;12.80;;
16115;SDS011;8162;47.104;15.432;2023-05-07T15:26:29;15.83;;;13.20;;
16115;SDS011;8162;47.104;15.432;2023-05-07T15:29:30;15.47;;;13.70;;
16115;SDS011;8162;47.104;15.432;2023-05-07T15:32:31;15.00;;;13.43;;
16115;SDS011;8162;47.104;15.432;2023-05-07T15:35:32;14.97;;;12.63;;
16115;SDS011;8162;47.104;15.432;2023-05-07T15:38:33;13.37;;;12.13;;
16115;SDS011;8162;47.104;15.432;2023-05-07T15:41:34;13.37;;;11.97;;
16115;SDS011;8162;47.104;15.432;2023-05-07T15:44:36;12.77;;;11.57;;
16115;SDS011;8162;47.104;15.432;2023-05-07T15:47:38;14.27;;;12.80;;
16115;SDS011;8162;47.104;15.432;2023-05-07T15:50:39;14.97;;;12.90;;
16115;SDS011;8162;47.104;15.432;2023-05-07T15:53:40;20.27;;;13.30;;
16115;SDS011;8162;47.104;15.432;2023-05-07T15:56:41;13.33;;;12.17;;
16115;SDS011;8162;47.104;15.432;2023-05-07T15:59:42;14.13;;;12.00;;
16115;SDS011;8162;47.104;15.432;2023-05-07T16:02:43;16.60;;;14.27;;
16115;SDS011;8162;47.104;15.432;2023-05-07T16:05:44;17.10;;;12.30;;
16115;SDS011;8162;47.104;15.432;2023-05-07T16:08:45;14.77;;;13.17;;
16115;SDS011;8162;47.104;15.432;2023-05-07T16:11:47;16.03;;;13.13;;
16115;SDS011;8162;47.104;15.432;2023-05-07T16:14:48;13.27;;;11.90;;
16115;SDS011;8162;47.104;15.432;2023-05-07T16:17:50;13.70;;;12.40;;
16115;SDS011;8162;47.104;15.432;2023-05-07T16:20:56;13.73;;;12.37;;
16115;SDS011;8162;47.104;15.432;2023-05-07T16:23:59;14.03;;;12.73;;
16115;SDS011;8162;47.104;15.432;2023-05-07T16:27:00;15.30;;;12.23;;
16115;SDS011;8162;47.104;15.432;2023-05-07T16:30:01;13.30;;;12.00;;
16115;SDS011;8162;47.104;15.432;2023-05-07T16:33:02;14.73;;;13.43;;
16115;SDS011;8162;47.104;15.432;2023-05-07T16:36:04;14.07;;;12.67;;
16115;SDS011;8162;47.104;15.432;2023-05-07T16:39:05;13.37;;;11.97;;
16115;SDS011;8162;47.104;15.432;2023-05-07T16:42:06;13.03;;;11.73;;
16115;SDS011;8162;47.104;15.432;2023-05-07T16:45:07;13.30;;;11.90;;
16115;SDS011;8162;47.104;15.432;2023-05-07T16:48:08;11.90;;;10.70;;
16115;SDS011;8162;47.104;15.432;2023-05-07T16:51:09;10.43;;;9.33;;
16115;SDS011;8162;47.104;15.432;2023-05-07T16:54:10;11.67;;;10.57;;
16115;SDS011;8162;47.104;15.432;2023-05-07T16:57:11;13.47;;;12.17;;
16115;SDS011;8162;47.104;15.432;2023-05-07T17:00:13;11.67;;;10.57;;
16115;SDS011;8162;47.104;15.432;2023-05-07T17:03:14;13.27;;;11.97;;
16115;SDS011;8162;47.104;15.432;2023-05-07T17:06:15;12.97;;;11.87;;
16115;SDS011;8162;47.104;15.432;2023-05-07T17:09:16;11.37;;;10.37;;
16115;SDS011;8162;47.104;15.432;2023-05-07T17:12:17;13.07;;;11.80;;
16115;SDS011;8162;47.104;15.432;2023-05-07T17:15:18;14.20;;;12.80;;
16115;SDS011;8162;47.104;15.432;2023-05-07T17:18:19;13.53;;;12.33;;
16115;SDS011;8162;47.104;15.432;2023-05-07T17:21:20;13.30;;;12.00;;
16115;SDS011;8162;47.104;15.432;2023-05-07T17:24:22;12.17;;;10.97;;
16115;SDS011;8162;47.104;15.432;2023-05-07T17:27:23;12.40;;;11.30;;
16115;SDS011;8162;47.104;15.432;2023-05-07T17:30:24;13.70;;;12.10;;
16115;SDS011;8162;47.104;15.432;2023-05-07T17:33:25;11.40;;;10.33;;
16115;SDS011;8162;47.104;15.432;2023-05-07T17:36:26;12.33;;;11.13;;
16115;SDS011;8162;47.104;15.432;2023-05-07T17:39:27;12.83;;;11.63;;
16115;SDS011;8162;47.104;15.432;2023-05-07T17:42:28;12.97;;;11.67;;
16115;SDS011;8162;47.104;15.432;2023-05-07T17:45:31;13.40;;;12.10;;
16115;SDS011;8162;47.104;15.432;2023-05-07T17:48:32;12.40;;;11.20;;
16115;SDS011;8162;47.104;15.432;2023-05-07T17:51:33;13.27;;;11.97;;
16115;SDS011;8162;47.104;15.432;2023-05-07T17:54:34;12.60;;;11.40;;
16115;SDS011;8162;47.104;15.432;2023-05-07T17:57:35;14.47;;;13.13;;
16115;SDS011;8162;47.104;15.432;2023-05-07T18:00:36;17.73;;;13.17;;
16115;SDS011;8162;47.104;15.432;2023-05-07T18:03:37;15.00;;;12.67;;
16115;SDS011;8162;47.104;15.432;2023-05-07T18:06:39;13.73;;;11.93;;
16115;SDS011;8162;47.104;15.432;2023-05-07T18:09:41;17.03;;;13.47;;
16115;SDS011;8162;47.104;15.432;2023-05-07T18:12:42;12.90;;;11.23;;